createdAt,value
2023-03-29T00:00:36.433Z,71.43
2023-03-29T00:03:16.822Z,71.39
2023-03-29T00:05:45.417Z,71.36
2023-03-29T00:08:14.961Z,71.29
2023-03-29T00:10:43.187Z,71.30
2023-03-29T00:13:11.359Z,71.20
2023-03-29T00:15:41.279Z,71.13
2023-03-29T00:18:09.672Z,71.08
2023-03-29T00:20:37.882Z,71.02
2023-03-29T00:23:07.129Z,70.99
2023-03-29T00:25:35.357Z,70.97
2023-03-29T00:28:03.627Z,70.98
2023-03-29T00:30:31.933Z,71.04
2023-03-29T00:33:00.241Z,71.06
2023-03-29T00:35:28.408Z,71.06
2023-03-29T00:37:57.926Z,71.10
2023-03-29T00:40:26.553Z,71.21
2023-03-29T00:42:57.228Z,71.33
2023-03-29T00:45:30.505Z,71.43
2023-03-29T00:48:03.017Z,71.47
2023-03-29T00:50:36.488Z,71.58
2023-03-29T00:53:12.613Z,71.83
2023-03-29T00:55:49.862Z,71.97
2023-03-29T00:58:24.777Z,72.17
2023-03-29T01:01:02.474Z,72.26
2023-03-29T01:03:38.080Z,72.28
2023-03-29T01:06:08.763Z,72.33
2023-03-29T01:08:43.395Z,72.46
2023-03-29T01:11:24.868Z,72.70
2023-03-29T01:14:02.733Z,72.89
2023-03-29T01:16:33.260Z,73.05
2023-03-29T01:19:02.390Z,73.06
2023-03-29T01:21:44.241Z,73.12
2023-03-29T01:24:47.197Z,73.37
2023-03-29T01:27:44.663Z,73.82
2023-03-29T01:30:31.997Z,74.14
2023-03-29T01:36:16.593Z,74.27
2023-03-29T01:38:50.853Z,74.41
2023-03-29T01:41:18.989Z,74.54
2023-03-29T01:44:02.631Z,75.03
2023-03-29T01:46:45.760Z,75.10
2023-03-29T01:49:29.582Z,75.20
2023-03-29T01:52:15.117Z,75.30
2023-03-29T01:54:58.379Z,75.39
2023-03-29T01:57:27.319Z,75.83
2023-03-29T01:59:57.874Z,75.79
2023-03-29T02:02:28.800Z,75.82
2023-03-29T02:04:59.552Z,76.25
2023-03-29T02:07:32.467Z,76.51
2023-03-29T02:10:02.163Z,76.51
2023-03-29T02:12:31.166Z,76.58
2023-03-29T02:15:00.863Z,76.69
2023-03-29T02:17:31.440Z,76.67
2023-03-29T02:20:02.272Z,76.90
2023-03-29T02:22:39.321Z,76.80
2023-03-29T02:25:09.525Z,76.91
2023-03-29T02:27:39.383Z,77.05
2023-03-29T02:30:10.830Z,77.15
2023-03-29T02:33:08.421Z,77.16
2023-03-29T02:35:46.456Z,77.31
2023-03-29T02:38:15.458Z,77.55
2023-03-29T02:40:44.180Z,77.73
2023-03-29T02:43:14.572Z,77.93
2023-03-29T02:45:44.343Z,78.10
2023-03-29T02:48:18.129Z,78.31
2023-03-29T02:50:51.260Z,78.46
2023-03-29T02:53:24.615Z,78.60
2023-03-29T02:55:55.060Z,78.68
2023-03-29T02:58:26.696Z,78.90
2023-03-29T03:00:58.684Z,79.06
2023-03-29T03:03:27.700Z,79.08
2023-03-29T03:05:56.643Z,79.08
2023-03-29T03:08:24.831Z,79.51
2023-03-29T03:10:54.206Z,79.52
2023-03-29T03:13:22.276Z,79.61
2023-03-29T03:15:50.735Z,79.79
2023-03-29T03:18:18.895Z,79.79
2023-03-29T03:20:59.408Z,80.02
2023-03-29T03:23:29.098Z,80.10
2023-03-29T03:25:57.572Z,80.21
2023-03-29T03:28:27.457Z,80.23
2023-03-29T03:30:56.096Z,80.29
2023-03-29T03:33:25.041Z,80.43
2023-03-29T03:36:26.433Z,80.62
2023-03-29T03:38:55.174Z,80.80
2023-03-29T03:41:23.369Z,80.77
2023-03-29T03:43:51.433Z,80.93
2023-03-29T03:46:19.764Z,80.85
2023-03-29T03:48:48.207Z,80.97
2023-03-29T03:51:36.941Z,81.04
2023-03-29T03:54:05.671Z,81.09
2023-03-29T03:56:36.361Z,81.08
2023-03-29T03:59:18.157Z,81.15
2023-03-29T04:05:48.851Z,81.18
2023-03-29T04:08:18.160Z,81.31
2023-03-29T04:11:07.757Z,81.43
2023-03-29T04:13:38.470Z,81.51
2023-03-29T04:16:25.431Z,81.70
2023-03-29T04:18:53.883Z,81.79
2023-03-29T04:21:23.229Z,81.86
2023-03-29T04:23:51.451Z,81.92
2023-03-29T04:26:19.695Z,81.89
2023-03-29T04:28:56.582Z,81.98
2023-03-29T04:34:37.207Z,81.91
2023-03-29T04:37:10.593Z,81.97
2023-03-29T04:39:39.627Z,81.75
2023-03-29T04:42:09.559Z,81.23
2023-03-29T04:44:37.824Z,80.09
2023-03-29T04:47:07.314Z,77.91
2023-03-29T04:49:44.511Z,75.99
2023-03-29T04:52:18.586Z,75.58
2023-03-29T04:54:46.740Z,74.88
2023-03-29T04:57:26.184Z,74.67
2023-03-29T05:00:08.461Z,74.33
2023-03-29T05:02:59.706Z,74.34
2023-03-29T05:05:28.496Z,73.85
2023-03-29T05:07:57.578Z,73.89
2023-03-29T05:10:30.132Z,73.73
2023-03-29T05:12:58.387Z,73.41
2023-03-29T05:15:27.406Z,73.35
2023-03-29T05:17:56.246Z,73.57
2023-03-29T05:20:25.278Z,73.10
2023-03-29T05:22:53.848Z,72.87
2023-03-29T05:25:43.967Z,72.70
2023-03-29T05:28:12.098Z,72.17
2023-03-29T05:30:40.898Z,72.08
2023-03-29T05:33:21.152Z,72.27
2023-03-29T05:35:49.205Z,71.40
2023-03-29T05:38:18.066Z,71.52
2023-03-29T05:40:46.103Z,71.07
2023-03-29T05:43:33.756Z,70.79
2023-03-29T05:46:03.074Z,70.63
2023-03-29T05:48:31.659Z,70.09
2023-03-29T05:50:59.884Z,70.00
2023-03-29T05:53:28.459Z,70.15
2023-03-29T05:55:57.311Z,69.39
2023-03-29T05:58:28.545Z,69.34
2023-03-29T06:00:57.570Z,68.74
2023-03-29T06:03:36.671Z,68.53
2023-03-29T06:06:05.512Z,68.34
2023-03-29T06:08:35.313Z,68.10
2023-03-29T06:11:26.515Z,67.51
2023-03-29T06:14:13.955Z,67.14
2023-03-29T06:16:50.965Z,66.62
2023-03-29T06:19:19.793Z,66.80
2023-03-29T06:21:48.024Z,65.65
2023-03-29T06:24:20.745Z,64.89
2023-03-29T06:26:57.141Z,65.49
2023-03-29T06:29:25.749Z,64.02
2023-03-29T06:31:55.044Z,65.09
2023-03-29T06:34:49.615Z,63.05
2023-03-29T06:37:30.188Z,61.45
2023-03-29T06:40:07.032Z,61.59
2023-03-29T06:42:48.304Z,62.35
2023-03-29T06:45:37.841Z,63.59
2023-03-29T06:48:09.822Z,62.55
2023-03-29T06:50:38.226Z,60.35
2023-03-29T06:53:11.616Z,59.39
2023-03-29T06:55:41.383Z,60.70
2023-03-29T06:58:32.864Z,59.23
2023-03-29T07:01:05.538Z,59.48
2023-03-29T07:03:51.447Z,58.94
2023-03-29T07:06:24.084Z,58.04
2023-03-29T07:08:52.765Z,58.12
2023-03-29T07:11:41.712Z,57.26
2023-03-29T07:14:20.638Z,57.77
2023-03-29T07:16:49.676Z,54.30
2023-03-29T07:19:22.823Z,54.46
2023-03-29T07:21:57.275Z,55.03
2023-03-29T07:24:35.013Z,52.37
2023-03-29T07:27:04.547Z,51.02
2023-03-29T07:29:33.713Z,52.90
2023-03-29T07:32:01.820Z,51.58
2023-03-29T07:34:50.049Z,51.84
2023-03-29T07:37:25.465Z,51.21
2023-03-29T07:39:54.001Z,52.13
2023-03-29T07:42:40.394Z,48.84
2023-03-29T07:45:11.401Z,50.70
2023-03-29T07:47:49.417Z,45.97
2023-03-29T07:50:18.125Z,42.85
2023-03-29T07:52:46.297Z,44.88
2023-03-29T07:55:16.534Z,45.43
2023-03-29T07:57:55.664Z,45.73
2023-03-29T08:00:24.984Z,42.34
2023-03-29T08:03:13.275Z,41.35
2023-03-29T08:05:42.588Z,43.14
2023-03-29T08:08:14.310Z,43.79
2023-03-29T08:11:02.266Z,42.70
2023-03-29T08:13:43.472Z,39.51
2023-03-29T08:16:37.336Z,42.07
2023-03-29T08:19:10.123Z,38.73
2023-03-29T08:22:01.182Z,35.97
2023-03-29T08:24:33.112Z,37.83
2023-03-29T08:27:05.491Z,36.93
2023-03-29T08:29:33.717Z,37.38
2023-03-29T08:32:01.799Z,38.25
2023-03-29T08:34:31.914Z,40.36
2023-03-29T08:37:38.431Z,35.71
2023-03-29T08:40:07.418Z,33.78
2023-03-29T08:43:13.847Z,35.96
2023-03-29T08:46:00.836Z,38.23
2023-03-29T08:48:36.423Z,39.40
2023-03-29T08:51:17.357Z,37.97
2023-03-29T08:53:57.291Z,38.06
2023-03-29T08:56:34.149Z,37.56
2023-03-29T08:59:03.554Z,37.36
2023-03-29T09:01:36.334Z,37.25
2023-03-29T09:04:18.863Z,37.37
2023-03-29T09:06:57.904Z,35.14
2023-03-29T09:09:34.010Z,35.49
2023-03-29T09:12:22.802Z,37.01
2023-03-29T09:15:09.634Z,35.63
2023-03-29T09:17:42.043Z,37.49
2023-03-29T09:20:23.585Z,34.80
2023-03-29T09:23:03.260Z,34.65
2023-03-29T09:25:50.796Z,34.15
2023-03-29T09:28:22.766Z,34.45
2023-03-29T09:31:28.895Z,33.75
2023-03-29T09:34:03.863Z,30.52
2023-03-29T09:37:02.764Z,32.20
2023-03-29T09:39:31.935Z,33.83
2023-03-29T09:42:09.523Z,34.94
2023-03-29T09:44:43.988Z,35.89
2023-03-29T09:47:25.030Z,36.23
2023-03-29T09:49:59.386Z,36.65
2023-03-29T09:52:27.724Z,37.17
2023-03-29T09:55:05.474Z,37.26
2023-03-29T09:57:54.217Z,37.84
2023-03-29T10:00:22.501Z,38.78
2023-03-29T10:02:57.274Z,38.48
2023-03-29T10:05:37.039Z,38.98
2023-03-29T10:08:38.748Z,39.25
2023-03-29T10:11:13.002Z,39.61
2023-03-29T10:13:47.816Z,38.36
2023-03-29T10:16:22.333Z,38.30
2023-03-29T10:18:51.289Z,38.59
2023-03-29T10:21:34.397Z,39.31
2023-03-29T10:24:02.562Z,39.48
2023-03-29T10:26:34.501Z,38.85
2023-03-29T10:29:08.378Z,39.70
2023-03-29T10:31:41.697Z,39.20
2023-03-29T10:34:13.861Z,39.47
2023-03-29T10:36:44.242Z,39.07
2023-03-29T10:39:31.516Z,38.67
2023-03-29T10:42:04.373Z,38.75
2023-03-29T10:44:36.219Z,38.65
2023-03-29T10:47:13.010Z,38.46
2023-03-29T10:49:44.388Z,38.60
2023-03-29T10:52:17.415Z,39.43
2023-03-29T10:54:46.649Z,38.69
2023-03-29T10:57:39.615Z,38.33
2023-03-29T11:05:03.841Z,36.70
2023-03-29T11:08:05.653Z,36.19
2023-03-29T11:10:43.356Z,34.95
2023-03-29T11:13:39.656Z,35.49
2023-03-29T11:16:31.131Z,35.99
2023-03-29T11:19:02.201Z,36.04
2023-03-29T11:21:48.821Z,35.01
2023-03-29T11:24:53.769Z,35.20
2023-03-29T11:27:56.351Z,34.95
2023-03-29T11:30:45.023Z,34.07
2023-03-29T11:33:46.781Z,34.08
2023-03-29T11:36:22.780Z,33.07
2023-03-29T11:38:53.873Z,32.57
2023-03-29T11:41:27.559Z,32.47
2023-03-29T11:44:13.937Z,31.67
2023-03-29T11:46:51.272Z,32.79
2023-03-29T11:49:25.520Z,32.51
2023-03-29T11:52:01.273Z,33.75
2023-03-29T11:54:39.597Z,34.47
2023-03-29T11:57:20.662Z,34.42
2023-03-29T12:00:01.164Z,34.29
2023-03-29T12:02:40.475Z,33.85
2023-03-29T12:05:19.120Z,32.55
2023-03-29T12:08:09.250Z,32.39
2023-03-29T12:10:42.867Z,31.73
2023-03-29T12:13:24.727Z,32.48
2023-03-29T12:16:05.139Z,32.79
2023-03-29T12:18:46.570Z,32.64
2023-03-29T12:21:19.880Z,33.03
2023-03-29T12:23:49.013Z,33.33
2023-03-29T12:26:54.698Z,33.41
2023-03-29T12:29:58.145Z,32.86
2023-03-29T12:32:44.718Z,33.35
2023-03-29T12:36:17.357Z,33.96
2023-03-29T12:39:24.771Z,33.65
2023-03-29T12:42:23.235Z,33.84
2023-03-29T12:45:31.975Z,33.98
2023-03-29T12:48:00.775Z,33.89
2023-03-29T12:50:35.123Z,31.57
2023-03-29T12:53:07.534Z,31.16
2023-03-29T12:56:08.768Z,30.97
2023-03-29T12:58:39.735Z,31.74
2023-03-29T13:01:23.442Z,31.13
2023-03-29T13:03:57.847Z,32.30
2023-03-29T13:06:30.978Z,32.31
2023-03-29T13:09:00.712Z,32.14
2023-03-29T13:11:45.660Z,32.50
2023-03-29T13:14:19.010Z,32.91
2023-03-29T13:16:48.097Z,32.98
2023-03-29T13:19:24.087Z,32.55
2023-03-29T13:22:10.863Z,32.29
2023-03-29T13:24:41.617Z,32.93
2023-03-29T13:27:15.861Z,32.70
2023-03-29T13:29:50.083Z,32.65
2023-03-29T13:32:30.538Z,32.14
2023-03-29T13:35:11.730Z,32.00
2023-03-29T13:37:58.215Z,32.07
2023-03-29T13:40:44.613Z,32.18
2023-03-29T13:43:19.420Z,32.44
2023-03-29T13:45:56.985Z,32.81
2023-03-29T13:48:37.668Z,32.13
2023-03-29T13:51:17.850Z,33.02
2023-03-29T13:53:53.014Z,32.30
2023-03-29T13:56:30.065Z,31.71
2023-03-29T13:59:17.134Z,32.60
2023-03-29T14:01:57.979Z,32.76
2023-03-29T14:04:46.916Z,32.60
2023-03-29T14:07:26.469Z,31.93
2023-03-29T14:09:56.669Z,32.17
2023-03-29T14:12:27.450Z,32.28
2023-03-29T14:15:01.575Z,32.26
2023-03-29T14:17:30.506Z,32.72
2023-03-29T14:20:00.688Z,32.65
2023-03-29T14:22:33.921Z,32.30
2023-03-29T14:25:07.372Z,32.05
2023-03-29T14:27:37.280Z,32.19
2023-03-29T14:30:27.594Z,32.13
2023-03-29T14:32:56.903Z,31.98
2023-03-29T14:35:32.342Z,32.57
2023-03-29T14:38:02.045Z,32.77
2023-03-29T14:40:30.907Z,33.00
2023-03-29T14:43:05.478Z,32.85
2023-03-29T14:45:33.976Z,32.66
2023-03-29T14:48:02.537Z,32.63
2023-03-29T14:50:32.451Z,32.64
2023-03-29T14:53:01.760Z,32.48
2023-03-29T14:55:31.125Z,32.65
2023-03-29T14:58:00.542Z,32.88
2023-03-29T15:00:38.547Z,32.53
2023-03-29T15:03:14.181Z,32.89
2023-03-29T15:05:57.554Z,32.53
2023-03-29T15:08:37.756Z,32.18
2023-03-29T15:11:24.541Z,33.11
2023-03-29T15:14:00.442Z,33.40
2023-03-29T15:16:32.976Z,33.44
2023-03-29T15:19:02.335Z,33.58
2023-03-29T15:21:34.681Z,33.39
2023-03-29T15:24:04.094Z,33.78
2023-03-29T15:26:36.758Z,34.10
2023-03-29T15:29:15.346Z,33.83
2023-03-29T15:31:55.604Z,33.90
2023-03-29T15:34:29.479Z,34.54
2023-03-29T15:36:58.019Z,34.41
2023-03-29T15:39:30.866Z,34.88
2023-03-29T15:41:59.389Z,34.52
2023-03-29T15:44:33.372Z,34.47
2023-03-29T15:47:01.755Z,34.41
2023-03-29T15:49:29.949Z,34.46
2023-03-29T15:51:58.493Z,34.35
2023-03-29T15:54:28.742Z,34.61
2023-03-29T15:57:02.307Z,34.85
2023-03-29T15:59:31.941Z,35.04
2023-03-29T16:02:00.988Z,35.16
2023-03-29T16:04:30.213Z,35.09
2023-03-29T16:06:58.581Z,35.15
2023-03-29T16:09:27.470Z,35.18
2023-03-29T16:11:55.700Z,35.35
2023-03-29T16:14:24.308Z,35.49
2023-03-29T16:16:53.406Z,36.09
2023-03-29T16:19:22.364Z,36.18
2023-03-29T16:21:51.249Z,36.14
2023-03-29T16:24:28.139Z,36.53
2023-03-29T16:26:57.551Z,36.35
2023-03-29T16:29:26.028Z,36.59
2023-03-29T16:31:54.581Z,36.96
2023-03-29T16:34:23.010Z,36.88
2023-03-29T16:36:51.253Z,37.13
2023-03-29T16:39:19.559Z,37.49
2023-03-29T16:41:49.028Z,37.45
2023-03-29T16:44:22.832Z,37.59
2023-03-29T16:46:57.841Z,37.92
2023-03-29T16:49:26.071Z,38.52
2023-03-29T16:51:54.166Z,38.56
2023-03-29T16:54:29.719Z,38.62
2023-03-29T16:56:58.173Z,38.76
2023-03-29T16:59:27.133Z,38.71
2023-03-29T17:01:55.517Z,39.05
2023-03-29T17:04:23.732Z,39.29
2023-03-29T17:06:51.827Z,39.26
2023-03-29T17:09:20.085Z,39.18
2023-03-29T17:11:48.549Z,39.57
2023-03-29T17:14:17.228Z,39.76
2023-03-29T17:16:46.402Z,40.34
2023-03-29T17:19:14.556Z,40.93
2023-03-29T17:21:43.135Z,41.09
2023-03-29T17:24:11.515Z,41.09
2023-03-29T17:26:40.042Z,41.31
2023-03-29T17:29:08.422Z,41.62
2023-03-29T17:31:36.709Z,41.88
2023-03-29T17:34:05.078Z,42.60
2023-03-29T17:36:33.862Z,43.34
2023-03-29T17:39:02.729Z,43.67
2023-03-29T17:41:31.693Z,43.46
2023-03-29T17:43:59.958Z,44.42
2023-03-29T17:46:28.258Z,43.99
2023-03-29T17:48:56.703Z,43.46
2023-03-29T17:51:25.336Z,43.61
2023-03-29T17:53:54.899Z,44.06
2023-03-29T17:56:23.432Z,44.35
2023-03-29T17:58:52.450Z,45.48
2023-03-29T18:01:20.995Z,45.80
2023-03-29T18:03:49.314Z,47.30
2023-03-29T18:06:20.250Z,47.16
2023-03-29T18:08:48.610Z,46.44
2023-03-29T18:11:22.479Z,46.09
2023-03-29T18:13:52.409Z,45.54
2023-03-29T18:16:22.172Z,45.20
2023-03-29T18:18:51.085Z,45.20
2023-03-29T18:21:20.043Z,45.16
2023-03-29T18:23:49.554Z,45.26
2023-03-29T18:26:17.948Z,45.16
2023-03-29T18:28:47.350Z,45.30
2023-03-29T18:31:16.033Z,45.50
2023-03-29T18:33:44.380Z,45.52
2023-03-29T18:36:13.849Z,45.60
2023-03-29T18:38:43.836Z,45.84
2023-03-29T18:41:14.127Z,45.94
2023-03-29T18:43:43.321Z,46.05
2023-03-29T18:46:12.165Z,46.71
2023-03-29T18:48:41.068Z,46.56
2023-03-29T18:51:11.472Z,46.22
2023-03-29T18:53:41.657Z,46.57
2023-03-29T18:56:10.128Z,46.73
2023-03-29T18:58:38.191Z,46.96
2023-03-29T19:04:37.178Z,47.26
2023-03-29T19:07:05.450Z,47.70
2023-03-29T19:09:33.582Z,47.81
2023-03-29T19:12:02.341Z,47.96
2023-03-29T19:14:30.703Z,48.11
2023-03-29T19:16:58.757Z,48.76
2023-03-29T19:19:27.313Z,49.07
2023-03-29T19:21:57.694Z,48.64
2023-03-29T19:24:28.199Z,49.15
2023-03-29T19:26:56.592Z,50.33
2023-03-29T19:29:25.869Z,50.18
2023-03-29T19:31:54.772Z,49.10
2023-03-29T19:34:24.367Z,48.76
2023-03-29T19:37:49.645Z,48.48
2023-03-29T19:40:17.907Z,48.07
2023-03-29T19:42:47.616Z,48.50
2023-03-29T19:45:15.629Z,48.37
2023-03-29T19:47:47.585Z,48.07
2023-03-29T19:50:15.778Z,48.00
2023-03-29T19:52:43.939Z,47.76
2023-03-29T19:55:12.436Z,47.89
2023-03-29T19:57:40.569Z,48.51
2023-03-29T20:00:10.852Z,48.03
2023-03-29T20:02:42.570Z,47.87
2023-03-29T20:05:10.655Z,47.70
2023-03-29T20:07:38.640Z,47.92
2023-03-29T20:10:07.344Z,48.59
2023-03-29T20:12:36.569Z,48.93
2023-03-29T20:15:05.392Z,49.24
2023-03-29T20:17:35.782Z,48.89
2023-03-29T20:20:08.449Z,48.50
2023-03-29T20:22:42.159Z,48.65
2023-03-29T20:25:10.668Z,48.39
2023-03-29T20:27:41.103Z,48.65
2023-03-29T20:30:10.933Z,48.42
2023-03-29T20:32:39.060Z,48.25
2023-03-29T20:35:07.612Z,48.30
2023-03-29T20:37:36.199Z,48.18
2023-03-29T20:40:05.537Z,48.19
2023-03-29T20:42:34.670Z,48.34
2023-03-29T20:45:03.441Z,48.34
2023-03-29T20:47:31.842Z,48.52
2023-03-29T20:50:01.795Z,48.64
2023-03-29T20:52:30.767Z,48.90
2023-03-29T20:54:59.252Z,49.18
2023-03-29T20:57:29.283Z,49.22
2023-03-29T20:59:59.243Z,49.21
2023-03-29T21:02:27.516Z,49.36
2023-03-29T21:05:00.266Z,49.48
2023-03-29T21:07:28.926Z,49.69
2023-03-29T21:09:57.500Z,50.68
2023-03-29T21:12:25.987Z,50.93
2023-03-29T21:14:54.166Z,50.82
2023-03-29T21:17:22.740Z,50.77
2023-03-29T21:19:50.897Z,50.72
2023-03-29T21:22:18.907Z,50.96
2023-03-29T21:24:47.001Z,51.02
2023-03-29T21:27:29.906Z,51.20
2023-03-29T21:30:14.166Z,51.12
2023-03-29T21:32:42.261Z,51.50
2023-03-29T21:35:11.076Z,51.57
2023-03-29T21:37:39.265Z,51.67
2023-03-29T21:40:10.802Z,51.70
2023-03-29T21:42:38.994Z,51.77
2023-03-29T21:45:08.007Z,51.93
2023-03-29T21:47:36.250Z,52.06
2023-03-29T21:50:04.586Z,52.28
2023-03-29T21:52:32.666Z,52.54
2023-03-29T21:55:00.898Z,52.65
2023-03-29T21:57:29.149Z,52.81
2023-03-29T21:59:57.987Z,53.07
2023-03-29T22:02:26.348Z,53.35
2023-03-29T22:04:54.517Z,53.44
2023-03-29T22:07:26.560Z,53.68
2023-03-29T22:09:54.829Z,54.21
2023-03-29T22:12:22.899Z,54.56
2023-03-29T22:14:50.872Z,54.54
2023-03-29T22:17:18.814Z,54.54
2023-03-29T22:19:47.585Z,54.58
2023-03-29T22:22:16.341Z,54.60
2023-03-29T22:24:44.424Z,54.38
2023-03-29T22:27:12.464Z,54.63
2023-03-29T22:29:40.686Z,54.89
2023-03-29T22:32:08.906Z,55.03
2023-03-29T22:34:37.044Z,54.61
2023-03-29T22:37:05.495Z,54.84
2023-03-29T22:39:36.915Z,54.91
2023-03-29T22:42:05.045Z,55.07
2023-03-29T22:44:33.981Z,55.03
2023-03-29T22:47:02.155Z,55.21
2023-03-29T22:49:30.371Z,55.22
2023-03-29T22:51:59.961Z,55.21
2023-03-29T22:54:29.176Z,55.08
2023-03-29T22:56:58.123Z,55.14
2023-03-29T22:59:26.981Z,55.27
2023-03-29T23:01:55.026Z,55.41
2023-03-29T23:04:23.166Z,55.55
2023-03-29T23:06:51.347Z,55.47
2023-03-29T23:09:19.272Z,55.53
2023-03-29T23:11:47.217Z,55.28
2023-03-29T23:14:15.217Z,55.52
2023-03-29T23:16:43.302Z,55.76
2023-03-29T23:19:12.027Z,55.79
2023-03-29T23:21:40.067Z,55.78
2023-03-29T23:24:08.591Z,55.89
2023-03-29T23:26:37.615Z,56.20
2023-03-29T23:29:05.819Z,56.04
2023-03-29T23:31:34.089Z,56.18
2023-03-29T23:34:03.308Z,56.46
2023-03-29T23:36:31.604Z,56.62
2023-03-29T23:38:59.699Z,56.66
2023-03-29T23:41:28.538Z,56.73
2023-03-29T23:43:57.791Z,56.74
2023-03-29T23:46:26.147Z,56.88
2023-03-29T23:48:54.376Z,56.87
2023-03-29T23:51:23.269Z,57.03
2023-03-29T23:53:51.828Z,57.19
2023-03-29T23:56:21.676Z,57.32
2023-03-29T23:58:49.968Z,57.44
